createdAt,value
2023-03-27T00:02:26.276Z,39.70
2023-03-27T00:04:56.038Z,39.80
2023-03-27T00:07:23.840Z,40.47
2023-03-27T00:09:53.422Z,39.90
2023-03-27T00:12:21.260Z,41.30
2023-03-27T00:14:49.073Z,40.40
2023-03-27T00:17:17.239Z,40.38
2023-03-27T00:19:45.044Z,40.33
2023-03-27T00:22:12.845Z,40.92
2023-03-27T00:24:40.710Z,38.40
2023-03-27T00:27:10.055Z,39.60
2023-03-27T00:29:37.975Z,41.25
2023-03-27T00:32:06.147Z,40.72
2023-03-27T00:34:33.995Z,40.28
2023-03-27T00:37:04.550Z,40.60
2023-03-27T00:39:32.434Z,41.35
2023-03-27T00:42:00.228Z,39.90
2023-03-27T00:44:34.370Z,40.00
2023-03-27T00:47:03.738Z,40.50
2023-03-27T00:49:35.362Z,42.00
2023-03-27T00:52:06.639Z,40.40
2023-03-27T00:54:40.356Z,40.20
2023-03-27T00:57:11.516Z,40.05
2023-03-27T00:59:42.256Z,41.08
2023-03-27T01:02:10.911Z,40.30
2023-03-27T01:04:40.753Z,40.10
2023-03-27T01:07:11.101Z,41.03
2023-03-27T01:09:39.135Z,42.30
2023-03-27T01:12:16.052Z,39.85
2023-03-27T01:14:56.110Z,41.10
2023-03-27T01:17:48.976Z,40.30
2023-03-27T01:20:48.449Z,41.08
2023-03-27T01:23:59.796Z,40.65
2023-03-27T01:27:06.517Z,40.40
2023-03-27T01:29:48.250Z,40.90
2023-03-27T01:32:49.631Z,40.35
2023-03-27T01:35:48.013Z,40.30
2023-03-27T01:39:07.228Z,39.88
2023-03-27T01:41:43.560Z,40.50
2023-03-27T01:44:16.653Z,40.60
2023-03-27T01:46:50.899Z,40.17
2023-03-27T01:49:24.014Z,42.00
2023-03-27T01:51:57.323Z,40.60
2023-03-27T01:54:27.988Z,41.43
2023-03-27T01:57:02.417Z,40.70
2023-03-27T01:59:35.869Z,40.97
2023-03-27T02:02:09.977Z,40.13
2023-03-27T02:04:44.373Z,40.07
2023-03-27T02:07:17.691Z,40.55
2023-03-27T02:09:49.381Z,39.00
2023-03-27T02:12:22.373Z,39.40
2023-03-27T02:14:55.270Z,39.90
2023-03-27T02:17:26.299Z,40.00
2023-03-27T02:19:59.183Z,39.88
2023-03-27T02:22:38.270Z,40.55
2023-03-27T02:25:25.867Z,40.00
2023-03-27T02:28:13.697Z,40.67
2023-03-27T02:31:05.655Z,40.53
2023-03-27T02:33:45.163Z,40.65
2023-03-27T02:36:22.337Z,39.67
2023-03-27T02:38:56.306Z,42.25
2023-03-27T02:41:31.506Z,40.87
2023-03-27T02:44:10.696Z,39.67
2023-03-27T02:46:45.437Z,40.75
2023-03-27T02:49:19.497Z,39.90
2023-03-27T02:51:52.107Z,41.30
2023-03-27T02:54:26.459Z,40.55
2023-03-27T02:56:58.291Z,41.00
2023-03-27T02:59:31.428Z,42.13
2023-03-27T03:02:01.328Z,39.28
2023-03-27T03:04:32.192Z,38.97
2023-03-27T03:07:04.223Z,39.72
2023-03-27T03:09:32.579Z,38.97
2023-03-27T03:12:00.698Z,39.38
2023-03-27T03:14:33.885Z,39.15
2023-03-27T03:17:01.793Z,39.47
2023-03-27T03:19:29.718Z,40.28
2023-03-27T03:21:57.599Z,39.83
2023-03-27T03:24:27.530Z,39.72
2023-03-27T03:26:55.300Z,38.95
2023-03-27T03:29:23.106Z,40.42
2023-03-27T03:31:52.318Z,39.20
2023-03-27T03:34:22.322Z,39.20
2023-03-27T03:36:50.419Z,39.53
2023-03-27T03:39:19.054Z,42.00
2023-03-27T03:41:46.932Z,40.70
2023-03-27T03:44:14.810Z,39.70
2023-03-27T03:46:42.622Z,40.08
2023-03-27T03:49:11.819Z,39.80
2023-03-27T03:51:39.616Z,40.37
2023-03-27T03:54:09.087Z,40.60
2023-03-27T03:56:38.296Z,39.37
2023-03-27T03:59:06.123Z,40.47
2023-03-27T04:01:33.943Z,39.70
2023-03-27T04:04:02.099Z,39.92
2023-03-27T04:06:32.432Z,39.50
2023-03-27T04:09:00.752Z,41.80
2023-03-27T04:11:28.565Z,39.80
2023-03-27T04:13:56.340Z,39.45
2023-03-27T04:16:24.312Z,39.47
2023-03-27T04:18:55.367Z,43.05
2023-03-27T04:21:26.421Z,40.50
2023-03-27T04:24:02.097Z,40.72
2023-03-27T04:26:30.130Z,38.97
2023-03-27T04:28:58.186Z,42.00
2023-03-27T04:31:26.138Z,41.10
2023-03-27T04:33:54.039Z,40.30
2023-03-27T04:36:22.458Z,42.60
2023-03-27T04:38:50.501Z,41.38
2023-03-27T04:41:21.145Z,40.83
2023-03-27T04:43:49.022Z,41.90
2023-03-27T04:46:16.933Z,39.30
2023-03-27T04:48:45.012Z,42.13
2023-03-27T04:51:12.987Z,40.33
2023-03-27T04:53:42.791Z,39.60
2023-03-27T04:56:11.142Z,39.20
2023-03-27T04:58:41.491Z,40.08
2023-03-27T05:01:10.011Z,38.73
2023-03-27T05:03:38.985Z,39.10
2023-03-27T05:06:08.296Z,42.20
2023-03-27T05:08:36.128Z,42.13
2023-03-27T05:11:04.141Z,42.70
2023-03-27T05:13:31.922Z,41.80
2023-03-27T05:16:01.929Z,40.90
2023-03-27T05:18:31.093Z,39.25
2023-03-27T05:20:59.207Z,38.50
2023-03-27T05:23:27.339Z,39.70
2023-03-27T05:25:59.693Z,38.83
2023-03-27T05:28:29.126Z,38.75
2023-03-27T05:30:57.491Z,39.10
2023-03-27T05:33:27.072Z,39.00
2023-03-27T05:35:54.951Z,40.67
2023-03-27T05:38:24.421Z,38.60
2023-03-27T05:40:52.407Z,39.80
2023-03-27T05:43:20.368Z,38.60
2023-03-27T05:45:48.233Z,38.97
2023-03-27T05:48:16.092Z,38.17
2023-03-27T05:50:45.292Z,38.60
2023-03-27T05:53:13.948Z,39.50
2023-03-27T05:55:41.767Z,38.60
2023-03-27T05:58:11.749Z,38.47
2023-03-27T06:00:41.889Z,39.28
2023-03-27T06:03:12.192Z,39.60
2023-03-27T06:05:41.454Z,39.30
2023-03-27T06:08:11.551Z,39.20
2023-03-27T06:10:41.959Z,39.20
2023-03-27T06:13:12.622Z,39.25
2023-03-27T06:15:42.662Z,39.40
2023-03-27T06:18:11.620Z,39.15
2023-03-27T06:20:39.965Z,38.90
2023-03-27T06:23:09.087Z,39.50
2023-03-27T06:25:39.857Z,38.97
2023-03-27T06:28:09.646Z,39.17
2023-03-27T06:30:38.712Z,39.25
2023-03-27T06:33:07.559Z,37.72
2023-03-27T06:35:36.472Z,38.72
2023-03-27T06:38:04.762Z,38.80
2023-03-27T06:40:35.165Z,40.00
2023-03-27T06:43:05.947Z,39.83
2023-03-27T06:45:35.569Z,39.90
2023-03-27T06:48:16.931Z,39.60
2023-03-27T06:50:50.290Z,40.30
2023-03-27T06:53:27.182Z,40.33
2023-03-27T06:55:56.364Z,39.75
2023-03-27T06:58:25.967Z,39.40
2023-03-27T07:00:53.829Z,39.55
2023-03-27T07:03:23.877Z,39.65
2023-03-27T07:05:51.853Z,39.53
2023-03-27T07:08:24.370Z,39.50
2023-03-27T07:11:10.005Z,40.00
2023-03-27T07:13:41.272Z,40.40
2023-03-27T07:16:11.854Z,40.00
2023-03-27T07:18:39.791Z,40.08
2023-03-27T07:21:08.483Z,39.50
2023-03-27T07:23:36.625Z,39.60
2023-03-27T07:26:04.750Z,39.70
2023-03-27T07:28:32.770Z,39.78
2023-03-27T07:31:16.785Z,40.30
2023-03-27T07:33:55.492Z,39.92
2023-03-27T07:36:23.348Z,40.15
2023-03-27T07:38:51.138Z,42.00
2023-03-27T07:41:19.531Z,40.03
2023-03-27T07:43:47.395Z,39.90
2023-03-27T07:46:16.627Z,39.90
2023-03-27T07:48:44.525Z,42.00
2023-03-27T07:51:14.136Z,40.38
2023-03-27T07:53:43.432Z,40.00
2023-03-27T07:56:11.783Z,39.95
2023-03-27T07:58:40.849Z,40.30
2023-03-27T08:01:08.810Z,40.35
2023-03-27T08:03:39.057Z,41.20
2023-03-27T08:06:07.970Z,40.13
2023-03-27T08:08:35.998Z,41.45
2023-03-27T08:11:04.989Z,40.60
2023-03-27T08:13:33.076Z,40.72
2023-03-27T08:16:06.367Z,40.40
2023-03-27T08:18:34.375Z,40.75
2023-03-27T08:21:05.584Z,40.80
2023-03-27T08:23:33.960Z,41.10
2023-03-27T08:26:03.596Z,40.50
2023-03-27T08:28:32.892Z,40.60
2023-03-27T08:31:02.510Z,40.63
2023-03-27T08:33:31.364Z,40.55
2023-03-27T08:35:59.536Z,40.80
2023-03-27T08:38:33.069Z,40.80
2023-03-27T08:41:03.783Z,40.80
2023-03-27T08:43:37.214Z,41.13
2023-03-27T08:46:09.717Z,41.00
2023-03-27T08:48:44.444Z,42.40
2023-03-27T08:51:16.225Z,40.90
2023-03-27T08:53:51.647Z,40.70
2023-03-27T08:56:21.562Z,40.88
2023-03-27T08:58:50.028Z,43.70
2023-03-27T09:01:24.181Z,41.10
2023-03-27T09:03:57.123Z,41.80
2023-03-27T09:06:27.678Z,41.65
2023-03-27T09:09:06.348Z,41.85
2023-03-27T09:11:47.246Z,41.30
2023-03-27T09:14:24.247Z,41.50
2023-03-27T09:16:53.640Z,41.65
2023-03-27T09:19:30.527Z,43.55
2023-03-27T09:22:05.628Z,41.50
2023-03-27T09:24:40.211Z,41.58
2023-03-27T09:27:18.211Z,41.70
2023-03-27T09:29:46.883Z,41.50
2023-03-27T09:32:16.798Z,41.33
2023-03-27T09:34:44.968Z,41.10
2023-03-27T09:37:17.517Z,41.67
2023-03-27T09:39:49.217Z,41.67
2023-03-27T09:42:21.805Z,41.35
2023-03-27T09:44:55.825Z,41.60
2023-03-27T09:47:31.729Z,41.50
2023-03-27T09:50:08.258Z,41.90
2023-03-27T09:52:37.676Z,41.80
2023-03-27T09:55:24.510Z,41.45
2023-03-27T09:57:58.421Z,41.45
2023-03-27T10:00:30.719Z,41.80
2023-03-27T10:03:12.327Z,43.92
2023-03-27T10:05:41.558Z,41.85
2023-03-27T10:08:31.128Z,41.40
2023-03-27T10:11:01.780Z,41.58
2023-03-27T10:13:31.510Z,41.70
2023-03-27T10:16:00.811Z,41.60
2023-03-27T10:18:31.385Z,41.50
2023-03-27T10:21:01.984Z,41.60
2023-03-27T10:23:42.022Z,41.50
2023-03-27T10:26:14.944Z,41.47
2023-03-27T10:28:48.904Z,41.63
2023-03-27T10:31:30.595Z,41.90
2023-03-27T10:34:01.602Z,42.20
2023-03-27T10:36:34.365Z,42.40
2023-03-27T10:39:06.634Z,44.05
2023-03-27T10:41:37.534Z,41.80
2023-03-27T10:44:14.485Z,42.38
2023-03-27T10:46:43.768Z,42.73
2023-03-27T10:49:19.602Z,42.70
2023-03-27T10:51:51.840Z,42.20
2023-03-27T10:54:34.003Z,42.50
2023-03-27T10:57:06.059Z,43.33
2023-03-27T10:59:42.210Z,43.08
2023-03-27T11:02:17.975Z,41.20
2023-03-27T11:04:53.033Z,41.80
2023-03-27T11:07:26.739Z,41.00
2023-03-27T11:10:06.822Z,40.50
2023-03-27T11:12:39.342Z,40.05
2023-03-27T11:15:13.776Z,40.33
2023-03-27T11:17:48.813Z,40.72
2023-03-27T11:20:25.794Z,40.67
2023-03-27T11:23:05.690Z,41.38
2023-03-27T11:25:41.991Z,40.28
2023-03-27T11:28:20.524Z,40.70
2023-03-27T11:30:55.967Z,40.80
2023-03-27T11:33:41.506Z,41.00
2023-03-27T11:36:30.706Z,40.40
2023-03-27T11:39:10.207Z,42.97
2023-03-27T11:41:38.030Z,40.50
2023-03-27T11:44:09.043Z,41.60
2023-03-27T11:47:04.542Z,41.90
2023-03-27T11:49:59.945Z,41.30
2023-03-27T11:52:36.895Z,40.97
2023-03-27T11:55:17.346Z,41.40
2023-03-27T11:58:04.163Z,41.10
2023-03-27T12:00:39.483Z,41.20
2023-03-27T12:03:31.635Z,42.00
2023-03-27T12:06:14.555Z,41.30
2023-03-27T12:09:05.973Z,43.83
2023-03-27T12:11:43.282Z,41.63
2023-03-27T12:14:41.135Z,42.00
2023-03-27T12:17:43.375Z,41.90
2023-03-27T12:20:53.967Z,41.40
2023-03-27T12:23:52.144Z,41.20
2023-03-27T12:26:42.283Z,41.08
2023-03-27T12:29:25.288Z,41.50
2023-03-27T12:32:17.539Z,41.13
2023-03-27T12:34:54.315Z,41.00
2023-03-27T12:37:29.787Z,41.00
2023-03-27T12:39:59.919Z,40.90
2023-03-27T12:42:44.425Z,40.60
2023-03-27T12:45:18.227Z,40.28
2023-03-27T12:47:47.014Z,41.00
2023-03-27T12:50:28.162Z,43.15
2023-03-27T12:52:56.812Z,41.90
2023-03-27T12:55:33.601Z,41.58
2023-03-27T12:58:03.418Z,42.03
2023-03-27T13:00:32.540Z,41.90
2023-03-27T13:03:27.573Z,45.00
2023-03-27T13:06:14.260Z,41.90
2023-03-27T13:08:54.269Z,42.22
2023-03-27T13:11:38.763Z,41.20
2023-03-27T13:14:43.888Z,42.22
2023-03-27T13:17:50.614Z,41.70
2023-03-27T13:20:28.525Z,42.10
2023-03-27T13:23:09.676Z,42.08
2023-03-27T13:25:53.480Z,41.90
2023-03-27T13:28:34.343Z,42.00
2023-03-27T13:31:04.372Z,41.80
2023-03-27T13:33:47.984Z,41.88
2023-03-27T13:36:19.711Z,41.30
2023-03-27T13:39:21.064Z,41.78
2023-03-27T13:42:02.784Z,41.40
2023-03-27T13:44:41.786Z,41.30
2023-03-27T13:47:29.096Z,41.50
2023-03-27T13:50:14.982Z,41.67
2023-03-27T13:53:12.134Z,41.30
2023-03-27T13:56:07.204Z,43.30
2023-03-27T13:58:51.310Z,42.95
2023-03-27T14:01:34.130Z,43.53
2023-03-27T14:04:57.229Z,41.90
2023-03-27T14:08:07.979Z,44.67
2023-03-27T14:11:05.923Z,42.60
2023-03-27T14:13:46.647Z,42.50
2023-03-27T14:16:50.213Z,41.53
2023-03-27T14:19:57.210Z,43.90
2023-03-27T14:22:29.114Z,42.88
2023-03-27T14:25:00.269Z,42.53
2023-03-27T14:27:30.814Z,43.08
2023-03-27T14:30:07.155Z,42.20
2023-03-27T14:32:35.515Z,43.58
2023-03-27T14:35:06.013Z,42.85
2023-03-27T14:37:36.707Z,42.10
2023-03-27T14:40:20.250Z,42.80
2023-03-27T14:42:52.545Z,42.60
2023-03-27T14:45:23.729Z,42.60
2023-03-27T14:47:57.261Z,45.22
2023-03-27T14:50:26.327Z,43.80
2023-03-27T14:52:55.524Z,42.60
2023-03-27T14:55:29.751Z,42.53
2023-03-27T14:58:10.837Z,42.70
2023-03-27T15:00:41.174Z,42.10
2023-03-27T15:03:14.541Z,43.35
2023-03-27T15:06:01.631Z,44.17
2023-03-27T15:08:34.848Z,43.00
2023-03-27T15:11:09.772Z,43.17
2023-03-27T15:13:39.012Z,43.27
2023-03-27T15:16:08.954Z,42.08
2023-03-27T15:18:41.923Z,42.30
2023-03-27T15:21:13.596Z,42.75
2023-03-27T15:23:44.829Z,42.30
2023-03-27T15:26:18.921Z,41.72
2023-03-27T15:29:01.720Z,43.13
2023-03-27T15:31:30.764Z,41.90
2023-03-27T15:34:03.200Z,42.10
2023-03-27T15:36:33.053Z,41.70
2023-03-27T15:39:02.496Z,42.60
2023-03-27T15:41:43.934Z,41.60
2023-03-27T15:44:20.348Z,41.70
2023-03-27T15:46:53.011Z,42.67
2023-03-27T15:49:28.493Z,41.95
2023-03-27T15:51:56.838Z,41.47
2023-03-27T15:54:30.790Z,42.95
2023-03-27T15:57:10.352Z,42.50
2023-03-27T15:59:51.999Z,43.78
2023-03-27T16:02:22.758Z,41.45
2023-03-27T16:04:53.492Z,42.50
2023-03-27T16:07:25.018Z,41.80
2023-03-27T16:09:56.025Z,42.20
2023-03-27T16:12:30.117Z,42.60
2023-03-27T16:15:01.464Z,42.20
2023-03-27T16:17:34.341Z,42.90
2023-03-27T16:20:07.942Z,41.88
2023-03-27T16:22:37.635Z,43.20
2023-03-27T16:25:08.505Z,42.00
2023-03-27T16:27:38.951Z,42.55
2023-03-27T16:30:21.105Z,41.80
2023-03-27T16:32:48.968Z,41.70
2023-03-27T16:35:17.273Z,42.55
2023-03-27T16:37:45.176Z,41.75
2023-03-27T16:40:13.448Z,41.80
2023-03-27T16:42:41.770Z,43.13
2023-03-27T16:45:19.521Z,41.85
2023-03-27T16:47:50.713Z,41.67
2023-03-27T16:50:22.822Z,42.72
2023-03-27T16:52:50.731Z,42.07
2023-03-27T16:55:18.761Z,41.92
2023-03-27T16:57:47.026Z,41.45
2023-03-27T17:00:16.770Z,41.92
2023-03-27T17:02:46.916Z,42.10
2023-03-27T17:05:15.609Z,41.75
2023-03-27T17:07:44.735Z,41.47
2023-03-27T17:10:12.726Z,42.40
2023-03-27T17:12:40.769Z,41.30
2023-03-27T17:15:09.938Z,42.15
2023-03-27T17:17:37.837Z,41.60
2023-03-27T17:20:08.651Z,41.00
2023-03-27T17:22:36.606Z,41.80
2023-03-27T17:25:05.860Z,41.10
2023-03-27T17:27:34.310Z,40.90
2023-03-27T17:30:02.186Z,41.80
2023-03-27T17:32:30.264Z,42.10
2023-03-27T17:34:58.292Z,43.85
2023-03-27T17:37:27.500Z,41.42
2023-03-27T17:39:55.887Z,41.10
2023-03-27T17:42:24.050Z,41.10
2023-03-27T17:44:51.885Z,41.10
2023-03-27T17:47:19.833Z,41.00
2023-03-27T17:49:47.712Z,41.67
2023-03-27T17:52:15.738Z,41.70
2023-03-27T17:54:44.936Z,41.23
2023-03-27T17:57:12.786Z,41.20
2023-03-27T17:59:40.672Z,42.35
2023-03-27T18:02:09.080Z,40.80
2023-03-27T18:04:36.964Z,41.40
2023-03-27T18:07:04.793Z,40.83
2023-03-27T18:09:32.691Z,42.50
2023-03-27T18:12:02.003Z,40.70
2023-03-27T18:14:29.821Z,41.17
2023-03-27T18:16:57.603Z,40.50
2023-03-27T18:19:25.784Z,42.45
2023-03-27T18:21:53.618Z,41.30
2023-03-27T18:24:21.464Z,40.90
2023-03-27T18:26:49.280Z,41.20
2023-03-27T18:29:21.018Z,42.90
2023-03-27T18:31:49.062Z,41.40
2023-03-27T18:34:17.122Z,41.50
2023-03-27T18:36:50.571Z,41.00
2023-03-27T18:39:18.552Z,41.47
2023-03-27T18:41:46.416Z,40.53
2023-03-27T18:44:14.762Z,40.70
2023-03-27T18:46:43.953Z,40.63
2023-03-27T18:49:23.760Z,41.58
2023-03-27T18:51:52.557Z,41.30
2023-03-27T18:54:20.380Z,41.40
2023-03-27T18:56:48.670Z,41.00
2023-03-27T18:59:16.671Z,43.33
2023-03-27T19:01:46.028Z,41.00
2023-03-27T19:04:16.447Z,42.00
2023-03-27T19:06:46.141Z,41.00
2023-03-27T19:09:14.187Z,40.45
2023-03-27T19:11:43.666Z,40.40
2023-03-27T19:14:11.972Z,40.40
2023-03-27T19:16:39.911Z,41.90
2023-03-27T19:19:09.102Z,41.67
2023-03-27T19:21:36.929Z,44.08
2023-03-27T19:24:05.179Z,42.47
2023-03-27T19:26:37.198Z,40.45
2023-03-27T19:29:06.458Z,44.10
2023-03-27T19:31:34.494Z,41.80
2023-03-27T19:34:02.833Z,41.67
2023-03-27T19:36:32.786Z,42.40
2023-03-27T19:39:00.998Z,42.47
2023-03-27T19:41:28.887Z,40.97
2023-03-27T19:43:59.674Z,41.00
2023-03-27T19:46:28.994Z,41.22
2023-03-27T19:48:56.983Z,42.40
2023-03-27T19:51:24.820Z,41.60
2023-03-27T19:53:55.367Z,41.65
2023-03-27T19:56:23.411Z,41.70
2023-03-27T19:58:52.115Z,42.13
2023-03-27T20:01:21.371Z,40.60
2023-03-27T20:03:49.489Z,42.50
2023-03-27T20:06:19.350Z,41.65
2023-03-27T20:08:47.276Z,40.75
2023-03-27T20:11:16.567Z,40.67
2023-03-27T20:13:55.342Z,40.20
2023-03-27T20:16:25.988Z,40.10
2023-03-27T20:19:03.066Z,41.30
2023-03-27T20:21:32.733Z,41.20
2023-03-27T20:24:00.738Z,40.50
2023-03-27T20:26:32.407Z,40.28
2023-03-27T20:29:00.344Z,43.30
2023-03-27T20:31:28.257Z,40.50
2023-03-27T20:33:56.116Z,41.63
2023-03-27T20:36:23.972Z,39.90
2023-03-27T20:38:52.637Z,40.40
2023-03-27T20:41:21.724Z,40.33
2023-03-27T20:43:51.115Z,40.00
2023-03-27T20:46:18.981Z,39.70
2023-03-27T20:48:54.113Z,42.37
2023-03-27T20:51:24.241Z,41.38
2023-03-27T20:53:55.861Z,40.20
2023-03-27T20:56:24.439Z,41.50
2023-03-27T20:58:53.627Z,42.20
2023-03-27T21:01:27.633Z,40.40
2023-03-27T21:03:58.004Z,40.53
2023-03-27T21:06:25.879Z,39.95
2023-03-27T21:08:53.753Z,40.75
2023-03-27T21:11:21.558Z,40.40
2023-03-27T21:13:50.376Z,40.15
2023-03-27T21:16:19.571Z,39.63
2023-03-27T21:18:47.506Z,42.97
2023-03-27T21:21:15.675Z,39.90
2023-03-27T21:23:43.568Z,40.22
2023-03-27T21:26:11.443Z,40.08
2023-03-27T21:28:39.313Z,40.28
2023-03-27T21:31:07.867Z,40.70
2023-03-27T21:33:37.523Z,39.70
2023-03-27T21:36:06.253Z,40.20
2023-03-27T21:38:34.235Z,39.92
2023-03-27T21:41:02.904Z,40.40
2023-03-27T21:43:30.788Z,39.73
2023-03-27T21:46:00.027Z,40.10
2023-03-27T21:48:28.197Z,40.50
2023-03-27T21:51:00.859Z,39.83
2023-03-27T21:53:28.737Z,39.35
2023-03-27T21:55:57.461Z,40.35
2023-03-27T21:58:25.667Z,39.80
2023-03-27T22:00:56.022Z,40.10
2023-03-27T22:03:23.998Z,39.42
2023-03-27T22:06:07.799Z,40.10
2023-03-27T22:08:41.412Z,41.57
2023-03-27T22:11:09.740Z,40.60
2023-03-27T22:13:38.058Z,40.22
2023-03-27T22:16:09.348Z,39.10
2023-03-27T22:18:37.324Z,39.97
2023-03-27T22:21:16.376Z,39.80
2023-03-27T22:23:46.186Z,39.35
2023-03-27T22:26:14.113Z,40.45
2023-03-27T22:28:41.920Z,39.70
2023-03-27T22:31:09.961Z,40.20
2023-03-27T22:33:38.319Z,39.90
2023-03-27T22:36:09.559Z,39.50
2023-03-27T22:38:37.626Z,40.40
2023-03-27T22:41:08.386Z,39.60
2023-03-27T22:43:36.418Z,40.30
2023-03-27T22:46:06.765Z,39.60
2023-03-27T22:48:34.801Z,40.58
2023-03-27T22:51:03.038Z,42.10
2023-03-27T22:53:32.417Z,40.30
2023-03-27T22:56:01.245Z,39.60
2023-03-27T22:58:31.676Z,39.47
2023-03-27T23:01:00.439Z,39.30
2023-03-27T23:03:28.755Z,39.53
2023-03-27T23:05:56.912Z,39.40
2023-03-27T23:08:28.151Z,39.83
2023-03-27T23:10:56.978Z,39.42
2023-03-27T23:13:25.424Z,40.10
2023-03-27T23:15:54.831Z,39.63
2023-03-27T23:18:24.525Z,40.00
2023-03-27T23:20:56.492Z,39.20
2023-03-27T23:23:25.458Z,39.60
2023-03-27T23:25:53.339Z,39.90
2023-03-27T23:28:21.488Z,40.30
2023-03-27T23:30:58.779Z,39.67
2023-03-27T23:33:26.927Z,39.40
2023-03-27T23:36:02.033Z,38.53
2023-03-27T23:38:30.344Z,39.13
2023-03-27T23:40:59.438Z,39.05
2023-03-27T23:43:28.796Z,39.50
2023-03-27T23:45:59.277Z,38.73
2023-03-27T23:48:28.173Z,39.17
2023-03-27T23:50:56.846Z,39.40
2023-03-27T23:53:26.415Z,39.85
2023-03-27T23:55:56.003Z,39.40
2023-03-27T23:58:24.218Z,39.40
